Time;durP1;ratioP1;P1;durP2;ratioP2;P2;SDS_P1;SDS_P2;PMS_P1;PMS_P2;Temp;Humidity;BMP_temperature;BMP_pressure;BME280_temperature;BME280_humidity;BME280_pressure;Samples;Min_cycle;Max_cycle;Signal;HPM_P1;HPM_P2
2023/08/09 00:02:18;;;;;;;0.20;0.20;;;;;;;;;;6216451;22;20001;-94
2023/08/09 00:08:00;;;;;;;0.30;0.30;;;;;;;;;;6217240;22;20012;-93
2023/08/09 00:10:57;;;;;;;0.20;0.20;;;;;;;;;;6241780;22;20027;-93
2023/08/09 00:13:31;;;;;;;0.15;0.15;;;;;;;;;;6243324;22;20005;-92
2023/08/09 00:26:40;;;;;;;0.20;0.20;;;;;;;;;;6227206;22;20020;-92
2023/08/09 01:11:08;;;;;;;0.10;0.10;;;;;;;;;;6206891;22;20025;-92
2023/08/09 01:13:52;;;;;;;0.20;0.20;;;;;;;;;;6241773;22;20056;-93
2023/08/09 01:21:31;;;;;;;0.10;0.10;;;;;;;;;;6211778;22;20024;-93
2023/08/09 01:23:57;;;;;;;0.22;0.22;;;;;;;;;;6201777;22;20027;-92
2023/08/09 01:26:24;;;;;;;0.30;0.30;;;;;;;;;;6205164;22;20025;-93
2023/08/09 01:28:51;;;;;;;0.20;0.20;;;;;;;;;;6204754;22;20025;-93
2023/08/09 01:31:17;;;;;;;0.30;0.30;;;;;;;;;;6208694;22;20091;-92
2023/08/09 01:33:43;;;;;;;0.30;0.30;;;;;;;;;;6203369;22;20023;-92
2023/08/09 01:36:19;;;;;;;0.20;0.20;;;;;;;;;;6213834;22;20001;-92
2023/08/09 01:39:21;;;;;;;0.25;0.25;;;;;;;;;;6230793;22;20016;-94
2023/08/09 01:41:48;;;;;;;0.20;0.20;;;;;;;;;;6210891;22;20048;-93
2023/08/09 01:44:14;;;;;;;0.20;0.20;;;;;;;;;;6200232;22;20064;-92
2023/08/09 01:46:44;;;;;;;0.20;0.20;;;;;;;;;;6206479;22;20067;-92
2023/08/09 03:53:36;;;;;;;0.28;0.28;;;;;;;;;;6205113;22;20102;-93
2023/08/09 05:03:33;;;;;;;0.32;0.32;;;;;;;;;;6185815;22;20025;-91
2023/08/09 06:00:32;;;;;;;0.20;0.20;;;;;;;;;;6163975;22;20024;-93
2023/08/09 06:03:08;;;;;;;0.30;0.30;;;;;;;;;;6213994;22;20024;-93
2023/08/09 06:08:11;;;;;;;0.20;0.20;;;;;;;;;;6229704;23;20072;-92
2023/08/09 08:08:20;;;;;;;0.30;0.30;;;;;;;;;;6253076;22;20250;-91
2023/08/09 08:11:07;;;;;;;0.13;0.13;;;;;;;;;;6239465;22;20052;-91
2023/08/09 08:13:38;;;;;;;0.20;0.20;;;;;;;;;;6242972;22;20067;-93
2023/08/09 08:16:20;;;;;;;0.20;0.20;;;;;;;;;;6217027;22;20010;-92
2023/08/09 08:18:49;;;;;;;2.28;0.90;;;;;;;;;;6215216;22;20004;-92
2023/08/09 08:47:13;;;;;;;0.10;0.10;;;;;;;;;;6237309;22;20020;-92
2023/08/09 09:29:11;;;;;;;0.17;0.17;;;;;;;;;;6217213;22;20008;-92
2023/08/09 09:31:45;;;;;;;0.20;0.20;;;;;;;;;;6212388;22;20005;-94
2023/08/09 09:34:14;;;;;;;0.20;0.20;;;;;;;;;;6205650;22;20047;-94
2023/08/09 09:36:42;;;;;;;0.10;0.10;;;;;;;;;;6207606;22;20076;-94
2023/08/09 09:39:10;;;;;;;0.10;0.10;;;;;;;;;;6193545;22;20051;-93
2023/08/09 09:44:12;;;;;;;0.10;0.10;;;;;;;;;;6230629;22;20447;-93
2023/08/09 09:46:41;;;;;;;0.10;0.10;;;;;;;;;;6206363;23;20068;-94
2023/08/09 09:49:16;;;;;;;0.10;0.10;;;;;;;;;;6203586;23;20013;-94
2023/08/09 09:51:42;;;;;;;0.10;0.10;;;;;;;;;;6203555;23;20023;-93
2023/08/09 09:54:12;;;;;;;0.10;0.10;;;;;;;;;;6199392;22;20004;-94
2023/08/09 09:56:43;;;;;;;0.10;0.10;;;;;;;;;;6198116;23;20016;-94
2023/08/09 09:59:10;;;;;;;0.10;0.10;;;;;;;;;;6199783;23;20055;-95
2023/08/09 10:01:47;;;;;;;0.10;0.10;;;;;;;;;;6311048;22;20022;-93
2023/08/09 10:04:21;;;;;;;0.08;0.08;;;;;;;;;;6204389;23;20028;-94
2023/08/09 10:07:34;;;;;;;0.10;0.10;;;;;;;;;;6238092;22;20013;-93
2023/08/09 10:10:18;;;;;;;0.10;0.10;;;;;;;;;;6237855;22;20025;-94
2023/08/09 10:25:51;;;;;;;0.10;0.10;;;;;;;;;;6209347;22;20103;-93
2023/08/09 10:29:08;;;;;;;0.03;0.03;;;;;;;;;;6271225;22;20046;-91
2023/08/09 10:42:42;;;;;;;0.10;0.10;;;;;;;;;;6281478;22;20031;-93
2023/08/09 10:51:10;;;;;;;0.10;0.10;;;;;;;;;;6197955;22;20016;-93
2023/08/09 11:05:15;;;;;;;0.10;0.10;;;;;;;;;;6228317;22;20055;-92
2023/08/09 11:11:25;;;;;;;0.00;0.00;;;;;;;;;;6365301;22;20006;-94
2023/08/09 11:17:48;;;;;;;0.05;0.05;;;;;;;;;;6250603;23;20024;-92
2023/08/09 11:20:54;;;;;;;0.15;0.15;;;;;;;;;;6301844;22;20045;-94
2023/08/09 11:52:30;;;;;;;0.10;0.10;;;;;;;;;;6227541;22;20008;-92
2023/08/09 11:55:50;;;;;;;0.10;0.10;;;;;;;;;;6237885;23;20003;-92
2023/08/09 12:01:31;;;;;;;0.00;0.00;;;;;;;;;;6196165;22;20025;-92
2023/08/09 12:04:14;;;;;;;0.10;0.10;;;;;;;;;;6315450;22;20009;-90
2023/08/09 12:10:56;;;;;;;0.10;0.10;;;;;;;;;;6246510;23;20028;-92
2023/08/09 12:13:33;;;;;;;0.10;0.10;;;;;;;;;;6202235;22;20050;-93
2023/08/09 12:53:48;;;;;;;0.20;0.20;;;;;;;;;;6234671;23;20077;-92
2023/08/09 12:59:45;;;;;;;0.00;0.00;;;;;;;;;;6238385;22;20011;-96
2023/08/09 15:25:46;;;;;;;0.10;0.10;;;;;;;;;;6201801;22;20401;-94
2023/08/09 15:51:50;;;;;;;0.00;0.00;;;;;;;;;;6234883;22;20011;-91
2023/08/09 15:54:30;;;;;;;0.00;0.00;;;;;;;;;;6210614;22;20021;-94
2023/08/09 15:57:03;;;;;;;0.10;0.10;;;;;;;;;;6212888;23;20060;-93
2023/08/09 15:59:57;;;;;;;0.10;0.10;;;;;;;;;;6213438;23;20025;-93
2023/08/09 16:03:17;;;;;;;0.00;0.00;;;;;;;;;;6240453;22;20039;-94
2023/08/09 16:09:12;;;;;;;0.10;0.10;;;;;;;;;;6235684;22;20099;-93
2023/08/09 16:11:43;;;;;;;0.10;0.10;;;;;;;;;;6212793;22;20029;-94
2023/08/09 17:07:30;;;;;;;0.10;0.10;;;;;;;;;;6233153;22;20054;-94
2023/08/09 17:10:02;;;;;;;0.10;0.10;;;;;;;;;;6209674;23;20059;-94
2023/08/09 17:12:40;;;;;;;0.10;0.10;;;;;;;;;;6209675;23;20009;-93
2023/08/09 17:15:35;;;;;;;0.10;0.10;;;;;;;;;;6216366;22;20021;-94
2023/08/09 18:23:23;;;;;;;0.10;0.10;;;;;;;;;;6220933;22;20076;-93
2023/08/09 21:29:34;;;;;;;0.20;0.20;;;;;;;;;;6256748;22;20082;-87
2023/08/09 21:35:18;;;;;;;0.17;0.17;;;;;;;;;;6240418;23;20057;-87
2023/08/09 21:37:52;;;;;;;0.10;0.10;;;;;;;;;;6215819;22;20016;-85
2023/08/09 21:43:50;;;;;;;;;;;;;;;;;;;;;
2023/08/09 21:46:37;;;;;;;0.20;0.20;;;;;;;;;;6264795;23;20023;-87
2023/08/09 21:49:17;;;;;;;0.13;0.13;;;;;;;;;;6216341;22;20020;-87
2023/08/09 21:52:02;;;;;;;0.10;0.10;;;;;;;;;;6266921;22;20016;-87
2023/08/09 21:54:54;;;;;;;0.05;0.05;;;;;;;;;;6191220;22;20087;-85
2023/08/09 21:57:32;;;;;;;0.20;0.20;;;;;;;;;;6249539;22;20003;-87
2023/08/09 22:00:40;;;;;;;0.17;0.17;;;;;;;;;;6247275;23;20035;-85
2023/08/09 22:03:11;;;;;;;0.30;0.30;;;;;;;;;;6215024;22;20000;-86
2023/08/09 22:05:49;;;;;;;0.20;0.20;;;;;;;;;;6243039;23;20067;-86
2023/08/09 22:08:16;;;;;;;0.10;0.10;;;;;;;;;;6241189;23;20016;-87
2023/08/09 22:11:20;;;;;;;0.35;0.35;;;;;;;;;;6241836;23;20020;-88
2023/08/09 22:14:02;;;;;;;;;;;;;;;;;;6217842;22;20000;-86
2023/08/09 22:16:52;;;;;;;;;;;;;;;;;;;;;
2023/08/09 22:19:30;;;;;;;0.10;0.10;;;;;;;;;;6266038;22;20098;-86
2023/08/09 22:25:18;;;;;;;0.20;0.20;;;;;;;;;;6310543;22;20068;-87
2023/08/09 22:27:52;;;;;;;0.13;0.13;;;;;;;;;;6272480;22;20012;-88
2023/08/09 22:30:54;;;;;;;0.10;0.10;;;;;;;;;;6236471;22;20011;-87
2023/08/09 22:33:21;;;;;;;0.10;0.10;;;;;;;;;;6265008;22;20024;-87
2023/08/09 22:39:11;;;;;;;0.20;0.20;;;;;;;;;;6278246;23;20011;-85
2023/08/09 22:42:09;;;;;;;0.25;0.25;;;;;;;;;;6217063;23;20019;-87
2023/08/09 22:44:58;;;;;;;0.20;0.20;;;;;;;;;;6219187;23;20059;-86
2023/08/09 22:47:34;;;;;;;0.20;0.20;;;;;;;;;;6346526;22;20144;-86
2023/08/09 22:50:08;;;;;;;0.20;0.20;;;;;;;;;;6344129;22;20016;-87
2023/08/09 22:52:44;;;;;;;0.28;0.28;;;;;;;;;;6242553;22;20021;-86
2023/08/09 22:55:12;;;;;;;0.20;0.20;;;;;;;;;;6240474;23;20023;-88
2023/08/09 23:01:11;;;;;;;0.20;0.20;;;;;;;;;;6276742;23;20019;-86
2023/08/09 23:03:48;;;;;;;0.13;0.13;;;;;;;;;;6264929;22;20040;-86
2023/08/09 23:06:16;;;;;;;0.20;0.20;;;;;;;;;;6231120;22;20231;-86
2023/08/09 23:08:55;;;;;;;0.10;0.10;;;;;;;;;;6262969;22;20031;-87
2023/08/09 23:11:41;;;;;;;0.20;0.20;;;;;;;;;;6267207;22;20471;-87
2023/08/09 23:14:50;;;;;;;0.20;0.20;;;;;;;;;;6278165;23;20037;-86
2023/08/09 23:17:24;;;;;;;0.10;0.10;;;;;;;;;;6265159;23;20016;-87
2023/08/09 23:23:16;;;;;;;0.10;0.10;;;;;;;;;;6282659;22;20000;-87
2023/08/09 23:25:43;;;;;;;0.10;0.10;;;;;;;;;;6235672;23;20019;-87
2023/08/09 23:28:15;;;;;;;0.10;0.10;;;;;;;;;;6239895;23;20060;-87
2023/08/09 23:30:51;;;;;;;0.10;0.10;;;;;;;;;;6242959;23;20094;-87
2023/08/09 23:33:17;;;;;;;0.30;0.30;;;;;;;;;;6239931;22;20024;-88
2023/08/09 23:39:00;;;;;;;0.00;0.00;;;;;;;;;;6248165;22;20020;-86
2023/08/09 23:41:48;;;;;;;0.20;0.20;;;;;;;;;;6264976;22;20022;-86
2023/08/09 23:44:18;;;;;;;0.10;0.10;;;;;;;;;;6240227;23;20034;-87
2023/08/09 23:47:22;;;;;;;0.20;0.20;;;;;;;;;;6291308;22;20023;-86
2023/08/09 23:50:01;;;;;;;0.10;0.10;;;;;;;;;;6241278;23;20027;-86
2023/08/09 23:52:41;;;;;;;0.20;0.20;;;;;;;;;;6264929;22;19998;-90
2023/08/09 23:55:32;;;;;;;0.20;0.20;;;;;;;;;;6242197;23;20016;-88
2023/08/09 23:58:14;;;;;;;0.10;0.10;;;;;;;;;;6234869;22;20048;-86
